sensor_id;sensor_type;location;lat;lon;timestamp;pressure;altitude;pressure_sealevel;temperature;humidity
59757;BME280;45631;51.962;5.974;2024-02-21T00:00:16;69246.97;;;7.74;100.00
59757;BME280;45631;51.962;5.974;2024-02-21T00:02:45;69246.72;;;7.76;100.00
59757;BME280;45631;51.962;5.974;2024-02-21T00:05:13;69247.25;;;7.72;100.00
59757;BME280;45631;51.962;5.974;2024-02-21T00:07:43;69249.84;;;7.72;100.00
59757;BME280;45631;51.962;5.974;2024-02-21T00:10:11;69249.56;;;7.74;100.00
59757;BME280;45631;51.962;5.974;2024-02-21T00:12:39;69246.09;;;7.71;100.00
59757;BME280;45631;51.962;5.974;2024-02-21T00:15:08;69244.34;;;7.69;100.00
59757;BME280;45631;51.962;5.974;2024-02-21T00:17:36;69245.50;;;7.70;100.00
59757;BME280;45631;51.962;5.974;2024-02-21T00:20:05;69244.66;;;7.72;100.00
59757;BME280;45631;51.962;5.974;2024-02-21T00:22:33;69246.09;;;7.71;100.00
59757;BME280;45631;51.962;5.974;2024-02-21T00:25:03;69247.84;;;7.72;100.00
59757;BME280;45631;51.962;5.974;2024-02-21T00:27:32;69245.22;;;7.72;100.00
59757;BME280;45631;51.962;5.974;2024-02-21T00:30:00;69244.66;;;7.72;100.00
59757;BME280;45631;51.962;5.974;2024-02-21T00:32:29;69245.81;;;7.73;100.00
59757;BME280;45631;51.962;5.974;2024-02-21T00:35:00;69255.38;;;7.74;100.00
59757;BME280;45631;51.962;5.974;2024-02-21T00:37:29;69250.16;;;7.74;100.00
59757;BME280;45631;51.962;5.974;2024-02-21T00:39:57;69246.13;;;7.75;100.00
59757;BME280;45631;51.962;5.974;2024-02-21T00:42:27;69249.63;;;7.78;100.00
59757;BME280;45631;51.962;5.974;2024-02-21T00:44:55;69255.41;;;7.79;100.00
59757;BME280;45631;51.962;5.974;2024-02-21T00:47:23;69243.53;;;7.75;100.00
59757;BME280;45631;51.962;5.974;2024-02-21T00:49:51;69255.09;;;7.76;100.00
59757;BME280;45631;51.962;5.974;2024-02-21T00:52:19;69252.50;;;7.76;100.00
59757;BME280;45631;51.962;5.974;2024-02-21T00:54:48;69257.72;;;7.81;100.00
59757;BME280;45631;51.962;5.974;2024-02-21T00:57:20;69255.41;;;7.79;100.00
59757;BME280;45631;51.962;5.974;2024-02-21T00:59:50;69255.41;;;7.79;100.00
59757;BME280;45631;51.962;5.974;2024-02-21T01:02:18;69252.81;;;7.79;100.00
59757;BME280;45631;51.962;5.974;2024-02-21T01:04:46;69252.53;;;7.81;100.00
59757;BME280;45631;51.962;5.974;2024-02-21T01:07:14;69250.47;;;7.77;100.00
59757;BME280;45631;51.962;5.974;2024-02-21T01:09:43;69255.09;;;7.76;100.00
59757;BME280;45631;51.962;5.974;2024-02-21T01:12:11;69251.63;;;7.78;100.00
59757;BME280;45631;51.962;5.974;2024-02-21T01:14:39;69252.22;;;7.78;100.00
59757;BME280;45631;51.962;5.974;2024-02-21T01:17:09;69258.88;;;7.82;100.00
59757;BME280;45631;51.962;5.974;2024-02-21T01:19:37;69254.22;;;7.78;100.00
59757;BME280;45631;51.962;5.974;2024-02-21T01:22:05;69257.69;;;7.76;100.00
59757;BME280;45631;51.962;5.974;2024-02-21T01:24:33;69257.69;;;7.76;100.00
59757;BME280;45631;51.962;5.974;2024-02-21T01:27:01;69258.31;;;7.82;100.00
59757;BME280;45631;51.962;5.974;2024-02-21T01:29:30;69261.78;;;7.80;100.00
59757;BME280;45631;51.962;5.974;2024-02-21T01:31:58;69255.66;;;7.77;100.00
59757;BME280;45631;51.962;5.974;2024-02-21T01:34:27;69249.31;;;7.76;100.00
59757;BME280;45631;51.962;5.974;2024-02-21T01:36:58;69255.13;;;7.81;100.00
59757;BME280;45631;51.962;5.974;2024-02-21T01:39:31;69259.16;;;7.80;100.00
59757;BME280;45631;51.962;5.974;2024-02-21T01:41:59;69259.16;;;7.80;100.00
59757;BME280;45631;51.962;5.974;2024-02-21T01:44:27;69256.56;;;7.80;100.00
59757;BME280;45631;51.962;5.974;2024-02-21T01:46:55;69253.38;;;7.79;100.00
59757;BME280;45631;51.962;5.974;2024-02-21T01:49:24;69257.72;;;7.81;100.00
59757;BME280;45631;51.962;5.974;2024-02-21T01:51:54;69257.72;;;7.81;100.00
59757;BME280;45631;51.962;5.974;2024-02-21T01:54:23;69253.97;;;7.80;100.00
59757;BME280;45631;51.962;5.974;2024-02-21T01:56:55;69257.72;;;7.81;100.00
59757;BME280;45631;51.962;5.974;2024-02-21T01:59:24;69261.22;;;7.84;100.00
59757;BME280;45631;51.962;5.974;2024-02-21T02:01:52;69253.97;;;7.80;100.00
59757;BME280;45631;51.962;5.974;2024-02-21T02:04:24;69254.81;;;7.78;100.00
59757;BME280;45631;51.962;5.974;2024-02-21T02:06:55;69260.63;;;7.84;100.00
59757;BME280;45631;51.962;5.974;2024-02-21T02:09:24;69256.56;;;7.80;100.00
59757;BME280;45631;51.962;5.974;2024-02-21T02:11:52;69250.47;;;7.77;100.00
59757;BME280;45631;51.962;5.974;2024-02-21T02:14:20;69249.56;;;7.74;100.00
59757;BME280;45631;51.962;5.974;2024-02-21T02:16:48;69254.50;;;7.76;100.00
59757;BME280;45631;51.962;5.974;2024-02-21T02:19:17;69255.09;;;7.76;100.00
59757;BME280;45631;51.962;5.974;2024-02-21T02:21:49;69249.56;;;7.74;100.00
59757;BME280;45631;51.962;5.974;2024-02-21T02:24:22;69248.16;;;7.75;100.00
59757;BME280;45631;51.962;5.974;2024-02-21T02:26:51;69251.91;;;7.76;100.00
59757;BME280;45631;51.962;5.974;2024-02-21T02:29:20;69251.59;;;7.73;100.00
59757;BME280;45631;51.962;5.974;2024-02-21T02:31:49;69242.91;;;7.70;100.00
59757;BME280;45631;51.962;5.974;2024-02-21T02:34:17;69246.66;;;7.71;100.00
59757;BME280;45631;51.962;5.974;2024-02-21T02:36:46;69246.09;;;7.71;100.00
59757;BME280;45631;51.962;5.974;2024-02-21T02:39:16;69243.75;;;7.69;100.00
59757;BME280;45631;51.962;5.974;2024-02-21T02:41:45;69244.06;;;7.71;100.00
59757;BME280;45631;51.962;5.974;2024-02-21T02:44:16;69243.75;;;7.69;100.00
59757;BME280;45631;51.962;5.974;2024-02-21T02:46:44;69246.66;;;7.71;100.00
59757;BME280;45631;51.962;5.974;2024-02-21T02:49:13;69251.00;;;7.73;100.00
59757;BME280;45631;51.962;5.974;2024-02-21T02:51:41;69248.09;;;7.70;100.00
59757;BME280;45631;51.962;5.974;2024-02-21T02:54:12;69250.13;;;7.70;100.00
59757;BME280;45631;51.962;5.974;2024-02-21T02:56:40;69243.19;;;7.68;100.00
59757;BME280;45631;51.962;5.974;2024-02-21T02:59:10;69242.31;;;7.70;100.00
59757;BME280;45631;51.962;5.974;2024-02-21T03:01:38;69240.56;;;7.68;100.00
59757;BME280;45631;51.962;5.974;2024-02-21T03:04:06;69246.34;;;7.69;100.00
59757;BME280;45631;51.962;5.974;2024-02-21T03:06:37;69242.59;;;7.68;100.00
59757;BME280;45631;51.962;5.974;2024-02-21T03:09:06;69243.19;;;7.68;100.00
59757;BME280;45631;51.962;5.974;2024-02-21T03:11:36;69242.59;;;7.68;100.00
59757;BME280;45631;51.962;5.974;2024-02-21T03:14:08;69242.28;;;7.65;100.00
59757;BME280;45631;51.962;5.974;2024-02-21T03:16:37;69236.22;;;7.67;100.00
59757;BME280;45631;51.962;5.974;2024-02-21T03:19:05;69251.00;;;7.73;100.00
59757;BME280;45631;51.962;5.974;2024-02-21T03:21:34;69242.59;;;7.68;100.00
59757;BME280;45631;51.962;5.974;2024-02-21T03:24:02;69241.44;;;7.67;100.00
59757;BME280;45631;51.962;5.974;2024-02-21T03:26:30;69238.56;;;7.69;100.00
59757;BME280;45631;51.962;5.974;2024-02-21T03:28:59;69236.22;;;7.67;100.00
59757;BME280;45631;51.962;5.974;2024-02-21T03:31:27;69246.09;;;7.71;100.00
59757;BME280;45631;51.962;5.974;2024-02-21T03:33:59;69243.75;;;7.69;100.00
59757;BME280;45631;51.962;5.974;2024-02-21T03:36:27;69250.72;;;7.70;100.00
59757;BME280;45631;51.962;5.974;2024-02-21T03:38:56;69245.22;;;7.72;100.00
59757;BME280;45631;51.962;5.974;2024-02-21T03:41:24;69243.75;;;7.69;100.00
59757;BME280;45631;51.962;5.974;2024-02-21T03:43:52;69241.44;;;7.67;100.00
59757;BME280;45631;51.962;5.974;2024-02-21T03:46:24;69244.34;;;7.69;100.00
59757;BME280;45631;51.962;5.974;2024-02-21T03:48:52;69247.25;;;7.72;100.00
59757;BME280;45631;51.962;5.974;2024-02-21T03:51:22;69247.50;;;7.70;100.00
59757;BME280;45631;51.962;5.974;2024-02-21T03:53:50;69250.72;;;7.70;100.00
59757;BME280;45631;51.962;5.974;2024-02-21T03:56:18;69239.41;;;7.67;100.00
59757;BME280;45631;51.962;5.974;2024-02-21T03:58:50;69240.84;;;7.66;100.00
59757;BME280;45631;51.962;5.974;2024-02-21T04:01:18;69240.25;;;7.66;100.00
59757;BME280;45631;51.962;5.974;2024-02-21T04:03:47;69237.09;;;7.65;100.00
59757;BME280;45631;51.962;5.974;2024-02-21T04:06:15;69239.09;;;7.65;100.00
59757;BME280;45631;51.962;5.974;2024-02-21T04:08:45;69242.00;;;7.67;100.00
59757;BME280;45631;51.962;5.974;2024-02-21T04:11:13;69241.44;;;7.67;100.00
59757;BME280;45631;51.962;5.974;2024-02-21T04:13:41;69240.25;;;7.66;100.00
59757;BME280;45631;51.962;5.974;2024-02-21T04:16:10;69244.59;;;7.67;100.00
59757;BME280;45631;51.962;5.974;2024-02-21T04:18:39;69242.00;;;7.67;100.00
59757;BME280;45631;51.962;5.974;2024-02-21T04:21:08;69240.84;;;7.66;100.00
59757;BME280;45631;51.962;5.974;2024-02-21T04:23:37;69240.00;;;7.68;100.00
59757;BME280;45631;51.962;5.974;2024-02-21T04:26:06;69240.84;;;7.66;100.00
59757;BME280;45631;51.962;5.974;2024-02-21T04:28:35;69246.94;;;7.69;100.00
59757;BME280;45631;51.962;5.974;2024-02-21T04:31:03;69241.16;;;7.69;100.00
59757;BME280;45631;51.962;5.974;2024-02-21T04:33:32;69248.69;;;7.71;100.00
59757;BME280;45631;51.962;5.974;2024-02-21T04:36:00;69244.91;;;7.70;100.00
59757;BME280;45631;51.962;5.974;2024-02-21T04:38:28;69247.50;;;7.70;100.00
59757;BME280;45631;51.962;5.974;2024-02-21T04:40:57;69246.34;;;7.69;100.00
59757;BME280;45631;51.962;5.974;2024-02-21T04:43:27;69246.66;;;7.71;100.00
59757;BME280;45631;51.962;5.974;2024-02-21T04:45:55;69244.91;;;7.70;100.00
59757;BME280;45631;51.962;5.974;2024-02-21T04:48:23;69241.44;;;7.67;100.00
59757;BME280;45631;51.962;5.974;2024-02-21T04:50:51;69247.25;;;7.72;100.00
59757;BME280;45631;51.962;5.974;2024-02-21T04:53:19;69241.44;;;7.67;100.00
59757;BME280;45631;51.962;5.974;2024-02-21T04:55:48;69240.25;;;7.66;100.00
59757;BME280;45631;51.962;5.974;2024-02-21T04:58:16;69232.75;;;7.64;100.00
59757;BME280;45631;51.962;5.974;2024-02-21T05:00:45;69233.91;;;7.65;100.00
59757;BME280;45631;51.962;5.974;2024-02-21T05:03:14;69241.75;;;7.69;100.00
59757;BME280;45631;51.962;5.974;2024-02-21T05:05:42;69237.66;;;7.66;100.00
59757;BME280;45631;51.962;5.974;2024-02-21T05:08:10;69240.84;;;7.66;100.00
59757;BME280;45631;51.962;5.974;2024-02-21T05:10:38;69237.66;;;7.66;100.00
59757;BME280;45631;51.962;5.974;2024-02-21T05:13:07;69242.59;;;7.68;100.00
59757;BME280;45631;51.962;5.974;2024-02-21T05:15:35;69240.25;;;7.66;100.00
59757;BME280;45631;51.962;5.974;2024-02-21T05:18:05;69235.03;;;7.61;100.00
59757;BME280;45631;51.962;5.974;2024-02-21T05:20:33;69237.94;;;7.64;100.00
59757;BME280;45631;51.962;5.974;2024-02-21T05:23:02;69240.78;;;7.61;100.00
59757;BME280;45631;51.962;5.974;2024-02-21T05:25:30;69236.78;;;7.63;100.00
59757;BME280;45631;51.962;5.974;2024-02-21T05:27:58;69233.00;;;7.61;100.00
59757;BME280;45631;51.962;5.974;2024-02-21T05:30:29;69238.50;;;7.64;100.00
59757;BME280;45631;51.962;5.974;2024-02-21T05:32:57;69240.53;;;7.64;100.00
59757;BME280;45631;51.962;5.974;2024-02-21T05:35:28;69230.41;;;7.61;100.00
59757;BME280;45631;51.962;5.974;2024-02-21T05:37:57;69235.59;;;7.61;100.00
59757;BME280;45631;51.962;5.974;2024-02-21T05:40:26;69234.44;;;7.60;100.00
59757;BME280;45631;51.962;5.974;2024-02-21T05:42:54;69237.09;;;7.65;100.00
59757;BME280;45631;51.962;5.974;2024-02-21T05:45:23;69233.00;;;7.61;100.00
59757;BME280;45631;51.962;5.974;2024-02-21T05:47:51;69237.09;;;7.65;100.00
59757;BME280;45631;51.962;5.974;2024-02-21T05:50:21;69235.59;;;7.61;100.00
59757;BME280;45631;51.962;5.974;2024-02-21T05:52:52;69229.25;;;7.60;100.00
59757;BME280;45631;51.962;5.974;2024-02-21T05:55:21;69238.19;;;7.61;100.00
59757;BME280;45631;51.962;5.974;2024-02-21T05:57:49;69234.13;;;7.58;100.00
59757;BME280;45631;51.962;5.974;2024-02-21T06:00:18;69233.84;;;7.60;100.00
59757;BME280;45631;51.962;5.974;2024-02-21T06:02:46;69233.28;;;7.59;100.00
59757;BME280;45631;51.962;5.974;2024-02-21T06:05:14;69238.50;;;7.64;100.00
59757;BME280;45631;51.962;5.974;2024-02-21T06:07:42;69235.34;;;7.64;100.00
59757;BME280;45631;51.962;5.974;2024-02-21T06:10:12;69237.66;;;7.66;100.00
59757;BME280;45631;51.962;5.974;2024-02-21T06:12:40;69231.56;;;7.63;100.00
59757;BME280;45631;51.962;5.974;2024-02-21T06:15:09;69238.19;;;7.61;100.00
59757;BME280;45631;51.962;5.974;2024-02-21T06:17:37;69240.84;;;7.66;100.00
59757;BME280;45631;51.962;5.974;2024-02-21T06:20:06;69235.91;;;7.64;100.00
59757;BME280;45631;51.962;5.974;2024-02-21T06:22:35;69238.50;;;7.64;100.00
59757;BME280;45631;51.962;5.974;2024-02-21T06:25:03;69237.66;;;7.66;100.00
59757;BME280;45631;51.962;5.974;2024-02-21T06:27:33;69239.69;;;7.65;100.00
59757;BME280;45631;51.962;5.974;2024-02-21T06:30:01;69240.25;;;7.66;100.00
59757;BME280;45631;51.962;5.974;2024-02-21T06:32:30;69238.50;;;7.64;100.00
59757;BME280;45631;51.962;5.974;2024-02-21T06:34:58;69238.50;;;7.64;100.00
59757;BME280;45631;51.962;5.974;2024-02-21T06:37:28;69238.50;;;7.64;100.00
59757;BME280;45631;51.962;5.974;2024-02-21T06:39:57;69236.78;;;7.63;100.00
59757;BME280;45631;51.962;5.974;2024-02-21T06:42:25;69235.03;;;7.61;100.00
59757;BME280;45631;51.962;5.974;2024-02-21T06:44:55;69236.19;;;7.62;100.00
59757;BME280;45631;51.962;5.974;2024-02-21T06:47:23;69233.28;;;7.59;100.00
59757;BME280;45631;51.962;5.974;2024-02-21T06:49:51;69233.00;;;7.61;100.00
59757;BME280;45631;51.962;5.974;2024-02-21T06:52:20;69235.88;;;7.59;100.00
59757;BME280;45631;51.962;5.974;2024-02-21T06:54:48;69235.28;;;7.59;100.00
59757;BME280;45631;51.962;5.974;2024-02-21T06:57:16;69235.59;;;7.61;100.00
59757;BME280;45631;51.962;5.974;2024-02-21T06:59:44;69237.94;;;7.64;100.00
59757;BME280;45631;51.962;5.974;2024-02-21T07:02:14;69238.50;;;7.64;100.00
59757;BME280;45631;51.962;5.974;2024-02-21T07:04:42;69238.50;;;7.64;100.00
59757;BME280;45631;51.962;5.974;2024-02-21T07:07:10;69244.88;;;7.65;100.00
59757;BME280;45631;51.962;5.974;2024-02-21T07:09:39;69236.22;;;7.67;100.00
59757;BME280;45631;51.962;5.974;2024-02-21T07:12:09;69241.69;;;7.65;100.00
59757;BME280;45631;51.962;5.974;2024-02-21T07:14:39;69240.53;;;7.64;100.00
59757;BME280;45631;51.962;5.974;2024-02-21T07:17:07;69237.34;;;7.63;100.00
59757;BME280;45631;51.962;5.974;2024-02-21T07:19:37;69236.19;;;7.62;100.00
59757;BME280;45631;51.962;5.974;2024-02-21T07:22:05;69238.19;;;7.61;100.00
59757;BME280;45631;51.962;5.974;2024-02-21T07:24:33;69241.13;;;7.64;100.00
59757;BME280;45631;51.962;5.974;2024-02-21T07:27:02;69241.44;;;7.67;100.00
59757;BME280;45631;51.962;5.974;2024-02-21T07:29:31;69238.50;;;7.64;100.00
59757;BME280;45631;51.962;5.974;2024-02-21T07:31:59;69237.94;;;7.64;100.00
59757;BME280;45631;51.962;5.974;2024-02-21T07:34:28;69233.84;;;7.60;100.00
59757;BME280;45631;51.962;5.974;2024-02-21T07:36:58;69233.59;;;7.62;100.00
59757;BME280;45631;51.962;5.974;2024-02-21T07:39:26;69238.19;;;7.61;100.00
59757;BME280;45631;51.962;5.974;2024-02-21T07:41:57;69243.13;;;7.64;100.00
59757;BME280;45631;51.962;5.974;2024-02-21T07:44:25;69245.78;;;7.68;100.00
59757;BME280;45631;51.962;5.974;2024-02-21T07:46:53;69242.59;;;7.68;100.00
59757;BME280;45631;51.962;5.974;2024-02-21T07:49:21;69237.66;;;7.66;100.00
59757;BME280;45631;51.962;5.974;2024-02-21T07:51:50;69241.44;;;7.67;100.00
59757;BME280;45631;51.962;5.974;2024-02-21T07:54:20;69240.00;;;7.68;100.00
59757;BME280;45631;51.962;5.974;2024-02-21T07:56:48;69245.19;;;7.68;100.00
59757;BME280;45631;51.962;5.974;2024-02-21T07:59:16;69243.75;;;7.69;100.00
59757;BME280;45631;51.962;5.974;2024-02-21T08:01:45;69249.84;;;7.72;100.00
59757;BME280;45631;51.962;5.974;2024-02-21T08:04:13;69246.09;;;7.71;100.00
59757;BME280;45631;51.962;5.974;2024-02-21T08:06:42;69249.84;;;7.72;100.00
59757;BME280;45631;51.962;5.974;2024-02-21T08:09:12;69250.16;;;7.74;100.00
59757;BME280;45631;51.962;5.974;2024-02-21T08:11:41;69255.94;;;7.75;100.00
59757;BME280;45631;51.962;5.974;2024-02-21T08:14:09;69250.47;;;7.77;100.00
59757;BME280;45631;51.962;5.974;2024-02-21T08:16:38;69257.44;;;7.78;100.00
59757;BME280;45631;51.962;5.974;2024-02-21T08:19:06;69255.72;;;7.82;100.00
59757;BME280;45631;51.962;5.974;2024-02-21T08:21:34;69263.81;;;7.84;100.00
59757;BME280;45631;51.962;5.974;2024-02-21T08:24:02;69265.56;;;7.86;100.00
59757;BME280;45631;51.962;5.974;2024-02-21T08:26:31;69271.72;;;7.93;100.00
59757;BME280;45631;51.962;5.974;2024-02-21T08:29:00;69272.59;;;7.97;100.00
59757;BME280;45631;51.962;5.974;2024-02-21T08:31:29;69276.66;;;8.00;100.00
59757;BME280;45631;51.962;5.974;2024-02-21T08:34:01;69287.69;;;8.05;100.00
59757;BME280;45631;51.962;5.974;2024-02-21T08:36:30;69288.00;;;8.08;100.00
59757;BME280;45631;51.962;5.974;2024-02-21T08:38:59;69287.44;;;8.07;100.00
59757;BME280;45631;51.962;5.974;2024-02-21T08:41:29;69291.50;;;8.11;100.00
59757;BME280;45631;51.962;5.974;2024-02-21T08:44:19;69292.66;;;8.12;100.00
59757;BME280;45631;51.962;5.974;2024-02-21T08:46:47;69291.50;;;8.11;100.00
59757;BME280;45631;51.962;5.974;2024-02-21T08:49:15;69296.16;;;8.15;100.00
59757;BME280;45631;51.962;5.974;2024-02-21T08:51:43;69292.97;;;8.15;100.00
59757;BME280;45631;51.962;5.974;2024-02-21T08:54:13;69295.00;;;8.14;100.00
59757;BME280;45631;51.962;5.974;2024-02-21T08:56:41;69302.59;;;8.21;100.00
59757;BME280;45631;51.962;5.974;2024-02-21T08:59:09;69312.72;;;8.27;100.00
59757;BME280;45631;51.962;5.974;2024-02-21T09:01:39;69307.25;;;8.25;100.00
59757;BME280;45631;51.962;5.974;2024-02-21T09:04:08;69312.47;;;8.29;100.00
59757;BME280;45631;51.962;5.974;2024-02-21T09:06:36;69318.00;;;8.32;100.00
59757;BME280;45631;51.962;5.974;2024-02-21T09:09:08;69317.41;;;8.32;100.00
59757;BME280;45631;51.962;5.974;2024-02-21T09:11:37;69316.28;;;8.35;100.00
59757;BME280;45631;51.962;5.974;2024-02-21T09:14:05;69322.69;;;8.41;100.00
59757;BME280;45631;51.962;5.974;2024-02-21T09:16:34;69322.69;;;8.41;100.00
59757;BME280;45631;51.962;5.974;2024-02-21T09:19:04;69323.81;;;8.37;100.00
59757;BME280;45631;51.962;5.974;2024-02-21T09:21:32;69319.47;;;8.36;100.00
59757;BME280;45631;51.962;5.974;2024-02-21T09:24:00;69326.72;;;8.40;100.00
59757;BME280;45631;51.962;5.974;2024-02-21T09:26:29;69328.78;;;8.44;100.00
59757;BME280;45631;51.962;5.974;2024-02-21T09:28:57;69329.97;;;8.45;100.00
59757;BME280;45631;51.962;5.974;2024-02-21T09:31:25;69329.63;;;8.42;100.00
59757;BME280;45631;51.962;5.974;2024-02-21T09:33:53;69331.72;;;8.46;100.00
59757;BME280;45631;51.962;5.974;2024-02-21T09:36:26;69335.22;;;8.50;100.00
59757;BME280;45631;51.962;5.974;2024-02-21T09:38:55;69335.78;;;8.50;100.00
59757;BME280;45631;51.962;5.974;2024-02-21T09:41:25;69334.94;;;8.52;100.00
59757;BME280;45631;51.962;5.974;2024-02-21T09:43:54;69337.28;;;8.54;100.00
59757;BME280;45631;51.962;5.974;2024-02-21T09:46:32;69345.41;;;8.56;100.00
59757;BME280;45631;51.962;5.974;2024-02-21T09:49:09;69347.47;;;8.60;100.00
59757;BME280;45631;51.962;5.974;2024-02-21T09:51:43;69346.00;;;8.61;100.00
59757;BME280;45631;51.962;5.974;2024-02-21T09:54:13;69350.38;;;8.63;100.00
59757;BME280;45631;51.962;5.974;2024-02-21T09:56:45;69355.28;;;8.65;100.00
59757;BME280;45631;51.962;5.974;2024-02-21T09:59:14;69353.59;;;8.68;100.00
59757;BME280;45631;51.962;5.974;2024-02-21T10:01:43;69361.13;;;8.70;100.00
59757;BME280;45631;51.962;5.974;2024-02-21T10:04:14;69365.50;;;8.76;100.00
59757;BME280;45631;51.962;5.974;2024-02-21T10:06:44;69366.69;;;8.77;100.00
59757;BME280;45631;51.962;5.974;2024-02-21T10:09:20;69367.84;;;8.78;100.00
59757;BME280;45631;51.962;5.974;2024-02-21T10:11:50;69368.72;;;8.82;100.00
59757;BME280;45631;51.962;5.974;2024-02-21T10:14:18;69369.03;;;8.79;100.00
59757;BME280;45631;51.962;5.974;2024-02-21T10:16:47;69378.88;;;8.84;100.00
59757;BME280;45631;51.962;5.974;2024-02-21T10:19:17;69376.00;;;8.86;100.00
59757;BME280;45631;51.962;5.974;2024-02-21T10:22:01;69374.25;;;8.84;100.00
59757;BME280;45631;51.962;5.974;2024-02-21T10:24:30;69369.34;;;8.82;100.00
59757;BME280;45631;51.962;5.974;2024-02-21T10:27:01;69364.94;;;8.76;100.00
59757;BME280;45631;51.962;5.974;2024-02-21T10:29:30;69365.19;;;8.74;100.00
59757;BME280;45631;51.962;5.974;2024-02-21T10:32:06;69366.34;;;8.75;100.00
59757;BME280;45631;51.962;5.974;2024-02-21T10:34:36;69369.59;;;8.80;100.00
59757;BME280;45631;51.962;5.974;2024-02-21T10:37:07;69369.59;;;8.80;100.00
59757;BME280;45631;51.962;5.974;2024-02-21T10:39:37;69365.50;;;8.76;100.00
59757;BME280;45631;51.962;5.974;2024-02-21T10:42:06;69357.34;;;8.69;100.00
59757;BME280;45631;51.962;5.974;2024-02-21T10:44:37;69349.84;;;8.67;100.00
59757;BME280;45631;51.962;5.974;2024-02-21T10:47:08;69353.56;;;8.63;100.00
59757;BME280;45631;51.962;5.974;2024-02-21T10:49:39;69352.44;;;8.67;100.00
59757;BME280;45631;51.962;5.974;2024-02-21T10:52:14;69355.56;;;8.63;100.00
59757;BME280;45631;51.962;5.974;2024-02-21T10:54:50;69349.50;;;8.65;100.00
59757;BME280;45631;51.962;5.974;2024-02-21T10:57:22;69348.59;;;8.61;100.00
59757;BME280;45631;51.962;5.974;2024-02-21T10:59:51;69350.94;;;8.63;100.00
59757;BME280;45631;51.962;5.974;2024-02-21T11:02:20;69343.38;;;8.57;100.00
59757;BME280;45631;51.962;5.974;2024-02-21T11:04:49;69351.81;;;8.62;100.00
59757;BME280;45631;51.962;5.974;2024-02-21T11:07:21;69350.09;;;8.65;100.00
59757;BME280;45631;51.962;5.974;2024-02-21T11:09:53;69366.09;;;8.77;100.00
59757;BME280;45631;51.962;5.974;2024-02-21T11:12:23;69357.66;;;8.72;100.00
59757;BME280;45631;51.962;5.974;2024-02-21T11:14:52;69362.59;;;8.74;100.00
59757;BME280;45631;51.962;5.974;2024-02-21T11:17:20;69363.75;;;8.75;100.00
59757;BME280;45631;51.962;5.974;2024-02-21T11:19:53;69360.84;;;8.72;100.00
59757;BME280;45631;51.962;5.974;2024-02-21T11:22:23;69365.47;;;8.72;100.00
59757;BME280;45631;51.962;5.974;2024-02-21T11:25:06;69362.88;;;8.72;100.00
59757;BME280;45631;51.962;5.974;2024-02-21T11:27:35;69362.28;;;8.71;100.00
59757;BME280;45631;51.962;5.974;2024-02-21T11:30:06;69364.34;;;8.75;100.00
59757;BME280;45631;51.962;5.974;2024-02-21T11:32:35;69366.69;;;8.77;100.00
59757;BME280;45631;51.962;5.974;2024-02-21T11:35:04;69368.41;;;8.79;100.00
59757;BME280;45631;51.962;5.974;2024-02-21T11:37:36;69362.31;;;8.76;100.00
59757;BME280;45631;51.962;5.974;2024-02-21T11:40:05;69357.66;;;8.72;100.00
59757;BME280;45631;51.962;5.974;2024-02-21T11:42:38;69372.44;;;8.78;100.00
59757;BME280;45631;51.962;5.974;2024-02-21T11:45:07;69373.63;;;8.79;100.00
59757;BME280;45631;51.962;5.974;2024-02-21T11:47:36;69362.31;;;8.76;100.00
59757;BME280;45631;51.962;5.974;2024-02-21T11:50:09;69368.16;;;8.81;100.00
59757;BME280;45631;51.962;5.974;2024-02-21T11:52:41;69362.59;;;8.74;100.00
59757;BME280;45631;51.962;5.974;2024-02-21T11:55:09;69364.34;;;8.75;100.00
59757;BME280;45631;51.962;5.974;2024-02-21T11:57:37;69368.16;;;8.81;100.00
59757;BME280;45631;51.962;5.974;2024-02-21T12:00:13;69372.50;;;8.83;100.00
59757;BME280;45631;51.962;5.974;2024-02-21T12:02:42;69368.69;;;8.77;100.00
59757;BME280;45631;51.962;5.974;2024-02-21T12:05:10;69364.94;;;8.76;100.00
59757;BME280;45631;51.962;5.974;2024-02-21T12:07:40;69368.41;;;8.79;100.00
59757;BME280;45631;51.962;5.974;2024-02-21T12:10:09;69377.44;;;8.85;100.00
59757;BME280;45631;51.962;5.974;2024-02-21T12:12:38;69369.03;;;8.79;100.00
59757;BME280;45631;51.962;5.974;2024-02-21T12:15:07;69370.75;;;8.81;100.00
59757;BME280;45631;51.962;5.974;2024-02-21T12:17:36;69374.25;;;8.84;100.00
59757;BME280;45631;51.962;5.974;2024-02-21T12:20:05;69371.38;;;8.86;100.00
59757;BME280;45631;51.962;5.974;2024-02-21T12:22:37;69382.72;;;8.94;100.00
59757;BME280;45631;51.962;5.974;2024-02-21T12:25:17;69378.38;;;8.92;100.00
59757;BME280;45631;51.962;5.974;2024-02-21T12:27:46;69393.47;;;9.01;100.00
59757;BME280;45631;51.962;5.974;2024-02-21T12:30:16;69399.31;;;9.06;100.00
59757;BME280;45631;51.962;5.974;2024-02-21T12:32:44;69409.81;;;9.16;100.00
59757;BME280;45631;51.962;5.974;2024-02-21T12:35:12;69421.19;;;9.28;100.00
59757;BME280;45631;51.962;5.974;2024-02-21T12:37:40;69433.66;;;9.32;100.00
59757;BME280;45631;51.962;5.974;2024-02-21T12:40:09;69434.28;;;9.37;100.00
59757;BME280;45631;51.962;5.974;2024-02-21T12:42:42;69437.22;;;9.40;100.00
59757;BME280;45631;51.962;5.974;2024-02-21T12:45:10;69445.06;;;9.44;100.00
59757;BME280;45631;51.962;5.974;2024-02-21T12:47:38;69449.44;;;9.51;100.00
59757;BME280;45631;51.962;5.974;2024-02-21T12:50:07;69455.00;;;9.58;100.00
59757;BME280;45631;51.962;5.974;2024-02-21T12:52:36;69460.53;;;9.60;100.00
59757;BME280;45631;51.962;5.974;2024-02-21T12:55:05;69468.09;;;9.67;100.00
59757;BME280;45631;51.962;5.974;2024-02-21T12:57:33;69473.34;;;9.72;100.00
59757;BME280;45631;51.962;5.974;2024-02-21T13:00:03;69472.50;;;9.73;100.00
59757;BME280;45631;51.962;5.974;2024-02-21T13:02:35;69476.88;;;9.75;100.00
59757;BME280;45631;51.962;5.974;2024-02-21T13:05:06;69485.03;;;9.82;100.00
59757;BME280;45631;51.962;5.974;2024-02-21T13:07:34;69488.81;;;9.83;100.00
59757;BME280;45631;51.962;5.974;2024-02-21T13:10:03;69493.19;;;9.89;100.00